createdAt,value
2018-09-11T00:02:24.538Z,10.60
2018-09-11T00:04:52.886Z,10.30
2018-09-11T00:07:21.319Z,11.07
2018-09-11T00:09:49.708Z,10.83
2018-09-11T00:12:18.064Z,11.03
2018-09-11T00:14:46.417Z,10.27
2018-09-11T00:17:14.734Z,10.30
2018-09-11T00:19:43.096Z,10.87
2018-09-11T00:22:11.394Z,13.67
2018-09-11T00:24:39.811Z,10.93
2018-09-11T00:27:08.150Z,10.10
2018-09-11T00:29:36.526Z,11.23
2018-09-11T00:32:04.961Z,11.27
2018-09-11T00:34:33.303Z,10.50
2018-09-11T00:37:01.857Z,12.93
2018-09-11T00:39:30.234Z,10.53
2018-09-11T00:41:58.616Z,11.37
2018-09-11T00:44:26.925Z,10.57
2018-09-11T00:46:55.263Z,12.53
2018-09-11T00:49:23.567Z,11.00
2018-09-11T00:51:52.043Z,11.97
2018-09-11T00:54:20.480Z,10.50
2018-09-11T00:56:48.837Z,9.57
2018-09-11T00:59:17.135Z,9.90
2018-09-11T01:01:45.540Z,10.53
2018-09-11T01:04:14.988Z,9.93
2018-09-11T01:06:43.360Z,10.17
2018-09-11T01:09:11.835Z,11.60
2018-09-11T01:11:40.176Z,10.37
2018-09-11T01:14:08.562Z,10.30
2018-09-11T01:16:37.046Z,10.60
2018-09-11T01:19:05.418Z,11.20
2018-09-11T01:21:33.768Z,11.27
2018-09-11T01:24:02.086Z,11.23
2018-09-11T01:26:30.511Z,12.97
2018-09-11T01:28:58.836Z,12.13
2018-09-11T01:31:27.232Z,10.50
2018-09-11T01:33:55.659Z,11.13
2018-09-11T01:36:24.198Z,11.23
2018-09-11T01:38:52.647Z,9.43
2018-09-11T01:41:21.097Z,11.50
2018-09-11T01:43:49.522Z,9.60
2018-09-11T01:46:17.902Z,10.10
2018-09-11T01:48:46.276Z,10.70
2018-09-11T01:51:14.640Z,10.03
2018-09-11T01:53:42.981Z,11.43
2018-09-11T01:56:11.370Z,11.33
2018-09-11T01:58:39.679Z,11.00
2018-09-11T02:01:08.054Z,10.00
2018-09-11T02:03:36.536Z,14.17
2018-09-11T02:06:05.055Z,10.90
2018-09-11T02:08:33.386Z,10.17
2018-09-11T02:11:01.749Z,10.50
2018-09-11T02:13:30.076Z,9.03
2018-09-11T02:15:58.420Z,9.37
2018-09-11T02:18:26.737Z,9.93
2018-09-11T02:20:55.153Z,9.97
2018-09-11T02:23:23.682Z,9.93
2018-09-11T02:25:52.155Z,9.77
2018-09-11T02:28:20.482Z,10.67
2018-09-11T02:30:48.787Z,10.70
2018-09-11T02:33:17.123Z,10.63
2018-09-11T02:35:45.511Z,9.67
2018-09-11T02:38:13.851Z,9.40
2018-09-11T02:40:42.243Z,11.40
2018-09-11T02:43:10.583Z,8.63
2018-09-11T02:45:38.968Z,9.63
2018-09-11T02:48:07.423Z,10.90
2018-09-11T02:50:35.751Z,8.73
2018-09-11T02:53:03.096Z,10.70
2018-09-11T02:55:31.441Z,8.53
2018-09-11T02:57:59.780Z,10.10
2018-09-11T03:00:28.223Z,9.50
2018-09-11T03:02:56.518Z,8.50
2018-09-11T03:05:24.975Z,10.67
2018-09-11T03:07:53.392Z,11.77
2018-09-11T03:10:21.766Z,9.80
2018-09-11T03:12:50.082Z,7.97
2018-09-11T03:15:18.427Z,11.80
2018-09-11T03:17:46.731Z,7.93
2018-09-11T03:20:15.094Z,9.87
2018-09-11T03:22:43.416Z,9.20
2018-09-11T03:25:11.773Z,8.80
2018-09-11T03:27:40.111Z,9.10
2018-09-11T03:30:09.139Z,9.63
2018-09-11T03:32:37.471Z,8.73
2018-09-11T03:35:06.082Z,8.80
2018-09-11T03:37:34.401Z,9.40
2018-09-11T03:40:02.796Z,8.53
2018-09-11T03:42:31.326Z,9.60
2018-09-11T03:44:59.614Z,9.93
2018-09-11T03:47:27.984Z,8.90
2018-09-11T03:49:56.482Z,10.57
2018-09-11T03:52:24.955Z,7.50
2018-09-11T03:54:53.262Z,10.43
2018-09-11T03:57:21.693Z,10.50
2018-09-11T03:59:50.127Z,10.27
2018-09-11T04:02:18.520Z,11.13
2018-09-11T04:04:46.861Z,12.30
2018-09-11T04:07:15.171Z,7.80
2018-09-11T04:09:43.682Z,11.67
2018-09-11T04:12:11.973Z,13.37
2018-09-11T04:14:40.301Z,9.93
2018-09-11T04:17:08.594Z,9.13
2018-09-11T04:19:37.102Z,9.17
2018-09-11T04:22:05.419Z,13.67
2018-09-11T04:24:33.759Z,11.00
2018-09-11T04:27:02.056Z,11.47
2018-09-11T04:29:30.488Z,9.07
2018-09-11T04:31:58.868Z,8.43
2018-09-11T04:34:27.450Z,9.23
2018-09-11T04:36:55.800Z,9.60
2018-09-11T04:39:24.170Z,16.47
2018-09-11T04:41:52.518Z,11.20
2018-09-11T04:44:20.782Z,8.77
2018-09-11T04:46:49.213Z,13.17
2018-09-11T04:49:17.528Z,11.37
2018-09-11T04:51:45.828Z,10.27
2018-09-11T04:54:14.172Z,8.70
2018-09-11T04:56:42.534Z,10.13
2018-09-11T04:59:10.840Z,11.43
2018-09-11T05:01:39.194Z,12.53
2018-09-11T05:04:07.517Z,12.63
2018-09-11T05:06:36.350Z,10.13
2018-09-11T05:09:07.396Z,9.70
2018-09-11T05:11:35.961Z,10.83
2018-09-11T05:14:05.132Z,11.10
2018-09-11T05:16:33.614Z,10.17
2018-09-11T05:19:02.372Z,9.87
2018-09-11T05:21:30.747Z,10.13
2018-09-11T05:23:59.302Z,10.80
2018-09-11T05:26:28.319Z,9.60
2018-09-11T05:28:57.300Z,9.50
2018-09-11T05:31:25.715Z,11.40
2018-09-11T05:33:54.126Z,12.67
2018-09-11T05:36:22.498Z,9.00
2018-09-11T05:38:50.963Z,11.27
2018-09-11T05:41:19.211Z,9.77
2018-09-11T05:43:47.774Z,9.60
2018-09-11T05:46:16.186Z,8.90
2018-09-11T05:48:45.429Z,10.60
2018-09-11T05:51:13.796Z,14.13
2018-09-11T05:53:42.206Z,10.23
2018-09-11T05:56:10.576Z,9.70
2018-09-11T05:58:39.980Z,7.73
2018-09-11T06:01:08.544Z,8.90
2018-09-11T06:03:36.998Z,10.23
2018-09-11T06:06:05.425Z,7.47
2018-09-11T06:08:33.767Z,11.77
2018-09-11T06:11:02.151Z,9.00
2018-09-11T06:13:30.590Z,8.47
2018-09-11T06:15:59.078Z,12.40
2018-09-11T06:18:27.829Z,9.97
2018-09-11T06:20:56.158Z,7.90
2018-09-11T06:23:24.558Z,10.17
2018-09-11T06:25:53.174Z,10.03
2018-09-11T06:28:21.461Z,8.07
2018-09-11T06:30:49.946Z,7.77
2018-09-11T06:33:18.270Z,8.57
2018-09-11T06:35:46.617Z,7.27
2018-09-11T06:38:15.692Z,5.83
2018-09-11T06:40:44.097Z,7.67
2018-09-11T06:43:12.651Z,7.23
2018-09-11T06:45:40.970Z,5.83
2018-09-11T06:48:09.329Z,6.70
2018-09-11T06:50:37.642Z,4.40
2018-09-11T06:53:06.113Z,4.93
2018-09-11T06:55:34.429Z,5.17
2018-09-11T06:58:02.767Z,6.03
2018-09-11T07:00:31.218Z,5.67
2018-09-11T07:02:59.547Z,6.03
2018-09-11T07:05:27.936Z,5.53
2018-09-11T07:07:56.328Z,5.97
2018-09-11T07:10:24.907Z,4.35
2018-09-11T07:12:53.394Z,6.10
2018-09-11T07:15:21.840Z,4.17
2018-09-11T07:17:50.181Z,5.92
2018-09-11T07:20:18.842Z,7.47
2018-09-11T07:22:46.915Z,5.10
2018-09-11T07:25:15.307Z,3.80
2018-09-11T07:27:43.587Z,7.33
2018-09-11T07:30:11.974Z,4.40
2018-09-11T07:32:40.360Z,5.53
2018-09-11T07:35:08.882Z,5.60
2018-09-11T07:37:37.535Z,4.50
2018-09-11T07:40:06.169Z,6.47
2018-09-11T07:42:34.628Z,4.70
2018-09-11T07:45:04.287Z,3.93
2018-09-11T07:47:32.603Z,6.30
2018-09-11T07:50:01.051Z,3.98
2018-09-11T07:52:29.800Z,4.43
2018-09-11T07:54:58.215Z,5.10
2018-09-11T07:57:26.713Z,5.23
2018-09-11T07:59:55.024Z,6.03
2018-09-11T08:02:23.504Z,7.80
2018-09-11T08:04:52.211Z,6.00
2018-09-11T08:07:20.515Z,5.03
2018-09-11T08:09:48.845Z,5.90
2018-09-11T08:12:17.167Z,5.13
2018-09-11T08:14:45.495Z,5.00
2018-09-11T08:17:13.835Z,5.93
2018-09-11T08:19:42.303Z,5.77
2018-09-11T08:22:14.942Z,4.90
2018-09-11T08:24:43.266Z,5.27
2018-09-11T08:27:11.611Z,6.85
2018-09-11T08:29:39.955Z,5.92
2018-09-11T08:32:08.235Z,4.37
2018-09-11T08:34:36.540Z,5.00
2018-09-11T08:37:04.909Z,4.85
2018-09-11T08:39:33.203Z,6.73
2018-09-11T08:42:01.553Z,5.17
2018-09-11T08:44:29.868Z,6.10
2018-09-11T08:46:58.279Z,5.05
2018-09-11T08:49:26.666Z,7.57
2018-09-11T08:51:55.084Z,5.45
2018-09-11T08:54:23.358Z,4.70
2018-09-11T08:56:51.660Z,5.60
2018-09-11T08:59:19.916Z,4.58
2018-09-11T09:01:48.219Z,6.00
2018-09-11T09:04:16.619Z,5.80
2018-09-11T09:06:45.275Z,5.60
2018-09-11T09:09:13.597Z,5.53
2018-09-11T09:11:41.909Z,5.50
2018-09-11T09:14:10.258Z,5.28
2018-09-11T09:16:38.682Z,4.58
2018-09-11T09:19:07.007Z,7.55
2018-09-11T09:21:35.325Z,8.45
2018-09-11T09:24:03.627Z,5.10
2018-09-11T09:26:32.036Z,6.70
2018-09-11T09:29:00.317Z,5.72
2018-09-11T09:31:28.731Z,5.90
2018-09-11T09:33:57.015Z,5.85
2018-09-11T09:36:25.544Z,8.05
2018-09-11T09:38:53.950Z,5.15
2018-09-11T09:41:22.442Z,6.87
2018-09-11T09:43:50.841Z,6.75
2018-09-11T09:46:19.290Z,6.47
2018-09-11T09:48:47.616Z,5.17
2018-09-11T09:51:16.023Z,4.87
2018-09-11T09:53:44.877Z,6.45
2018-09-11T09:56:13.153Z,5.00
2018-09-11T09:58:41.474Z,5.15
2018-09-11T10:01:15.287Z,6.30
2018-09-11T10:03:43.674Z,4.62
2018-09-11T10:06:12.068Z,4.80
2018-09-11T10:08:40.421Z,5.55
2018-09-11T10:11:08.721Z,8.13
2018-09-11T10:13:37.116Z,4.80
2018-09-11T10:16:05.439Z,4.85
2018-09-11T10:18:33.780Z,5.17
2018-09-11T10:21:02.054Z,5.00
2018-09-11T10:23:30.538Z,4.40
2018-09-11T10:25:58.874Z,6.78
2018-09-11T10:28:27.206Z,4.92
2018-09-11T10:30:55.571Z,4.78
2018-09-11T10:33:23.944Z,4.85
2018-09-11T10:35:52.315Z,5.20
2018-09-11T10:38:21.036Z,4.28
2018-09-11T10:40:49.432Z,4.40
2018-09-11T10:43:17.882Z,5.87
2018-09-11T10:45:47.292Z,5.92
2018-09-11T10:48:15.601Z,3.83
2018-09-11T10:50:43.983Z,3.92
2018-09-11T10:53:12.297Z,4.92
2018-09-11T10:55:40.628Z,3.90
2018-09-11T10:58:08.974Z,3.72
2018-09-11T11:00:37.339Z,3.52
2018-09-11T11:03:05.753Z,4.00
2018-09-11T11:05:34.089Z,6.37
2018-09-11T11:08:02.435Z,3.27
2018-09-11T11:10:31.056Z,3.65
2018-09-11T11:12:59.360Z,5.22
2018-09-11T11:15:27.768Z,3.08
2018-09-11T11:17:56.080Z,3.22
2018-09-11T11:20:24.717Z,4.85
2018-09-11T11:22:53.075Z,4.58
2018-09-11T11:25:21.403Z,3.47
2018-09-11T11:27:49.687Z,3.72
2018-09-11T11:30:18.101Z,4.87
2018-09-11T11:32:46.472Z,3.27
2018-09-11T11:35:14.807Z,3.20
2018-09-11T11:37:43.189Z,2.98
2018-09-11T11:40:11.606Z,3.62
2018-09-11T11:42:39.965Z,3.15
2018-09-11T11:45:08.466Z,3.83
2018-09-11T11:47:36.763Z,3.02
2018-09-11T11:50:05.194Z,3.35
2018-09-11T11:52:33.565Z,2.58
2018-09-11T11:55:02.369Z,5.97
2018-09-11T11:57:30.759Z,2.92
2018-09-11T11:59:59.082Z,3.98
2018-09-11T12:02:27.389Z,3.37
2018-09-11T12:04:55.828Z,4.37
2018-09-11T12:07:24.145Z,2.50
2018-09-11T12:09:52.442Z,1.98
2018-09-11T12:12:20.822Z,3.70
2018-09-11T12:14:49.249Z,4.33
2018-09-11T12:17:17.632Z,3.05
2018-09-11T12:19:45.940Z,5.80
2018-09-11T12:22:14.265Z,2.33
2018-09-11T12:24:42.718Z,3.02
2018-09-11T12:27:11.006Z,5.00
2018-09-11T12:29:39.286Z,2.27
2018-09-11T12:32:07.600Z,4.08
2018-09-11T12:34:36.014Z,3.62
2018-09-11T12:37:04.329Z,2.62
2018-09-11T12:39:32.683Z,2.52
2018-09-11T12:42:01.014Z,4.65
2018-09-11T12:44:29.297Z,4.83
2018-09-11T12:46:57.779Z,2.62
2018-09-11T12:49:25.926Z,2.77
2018-09-11T12:51:54.286Z,2.20
2018-09-11T12:54:22.635Z,2.70
2018-09-11T12:56:50.999Z,2.65
2018-09-11T12:59:19.418Z,2.77
2018-09-11T13:01:47.784Z,2.58
2018-09-11T13:04:16.110Z,2.60
2018-09-11T13:06:44.483Z,4.40
2018-09-11T13:09:12.924Z,5.22
2018-09-11T13:11:41.251Z,3.17
2018-09-11T13:14:09.586Z,2.10
2018-09-11T13:16:37.874Z,3.62
2018-09-11T13:19:06.173Z,2.30
2018-09-11T13:21:34.471Z,3.75
2018-09-11T13:24:02.826Z,3.17
2018-09-11T13:26:31.103Z,3.92
2018-09-11T13:28:59.418Z,4.55
2018-09-11T13:31:27.763Z,2.20
2018-09-11T13:33:56.172Z,3.02
2018-09-11T13:36:24.478Z,2.98
2018-09-11T13:38:52.897Z,3.65
2018-09-11T13:41:21.198Z,7.30
2018-09-11T13:43:49.637Z,2.47
2018-09-11T13:46:17.977Z,3.35
2018-09-11T13:48:46.323Z,3.92
2018-09-11T13:51:14.586Z,2.67
2018-09-11T13:53:43.199Z,3.67
2018-09-11T13:56:11.801Z,3.60
2018-09-11T13:58:40.199Z,2.92
2018-09-11T14:01:08.654Z,2.12
2018-09-11T14:03:36.991Z,2.72
2018-09-11T14:06:05.302Z,2.42
2018-09-11T14:08:33.671Z,2.22
2018-09-11T14:11:01.985Z,2.50
2018-09-11T14:13:30.395Z,2.98
2018-09-11T14:16:01.574Z,2.40
2018-09-11T14:18:29.898Z,3.17
2018-09-11T14:20:58.219Z,4.62
2018-09-11T14:23:26.579Z,2.45
2018-09-11T14:25:54.902Z,2.35
2018-09-11T14:28:23.189Z,2.47
2018-09-11T14:30:51.522Z,3.15
2018-09-11T14:33:20.119Z,3.02
2018-09-11T14:35:48.440Z,3.30
2018-09-11T14:38:16.792Z,3.33
2018-09-11T14:40:45.488Z,3.37
2018-09-11T14:43:13.790Z,2.65
2018-09-11T14:45:42.091Z,2.27
2018-09-11T14:48:10.524Z,5.78
2018-09-11T14:50:38.883Z,5.03
2018-09-11T14:53:07.171Z,2.65
2018-09-11T14:55:35.561Z,2.65
2018-09-11T14:58:03.986Z,2.42
2018-09-11T15:00:32.320Z,8.65
2018-09-11T15:03:00.665Z,3.15
2018-09-11T15:05:29.011Z,3.45
2018-09-11T15:07:57.353Z,3.22
2018-09-11T15:10:25.766Z,3.00
2018-09-11T15:12:54.099Z,2.42
2018-09-11T15:15:22.497Z,2.37
2018-09-11T15:17:50.871Z,2.87
2018-09-11T15:20:19.182Z,4.78
2018-09-11T15:22:47.566Z,4.08
2018-09-11T15:25:15.907Z,2.05
2018-09-11T15:27:44.259Z,4.08
2018-09-11T15:30:12.643Z,3.40
2018-09-11T15:32:40.991Z,2.12
2018-09-11T15:35:09.338Z,4.40
2018-09-11T15:37:37.712Z,2.00
2018-09-11T15:40:06.565Z,2.20
2018-09-11T15:42:34.966Z,2.62
2018-09-11T15:45:03.347Z,2.58
2018-09-11T15:47:31.760Z,4.75
2018-09-11T15:50:00.124Z,4.55
2018-09-11T15:52:28.558Z,2.75
2018-09-11T15:54:56.938Z,2.42
2018-09-11T15:57:25.927Z,4.30
2018-09-11T15:59:54.423Z,5.78
2018-09-11T16:02:22.848Z,2.08
2018-09-11T16:04:51.390Z,3.00
2018-09-11T16:07:19.942Z,4.35
2018-09-11T16:09:48.932Z,2.40
2018-09-11T16:12:17.290Z,3.47
2018-09-11T16:14:45.655Z,2.08
2018-09-11T16:17:14.062Z,2.40
2018-09-11T16:19:42.514Z,3.25
2018-09-11T16:22:10.982Z,3.27
2018-09-11T16:24:39.374Z,2.33
2018-09-11T16:27:09.741Z,3.65
2018-09-11T16:29:38.512Z,3.20
2018-09-11T16:32:07.299Z,2.80
2018-09-11T16:34:36.223Z,2.25
2018-09-11T16:37:05.791Z,4.65
2018-09-11T16:39:34.352Z,2.60
2018-09-11T16:42:02.766Z,2.92
2018-09-11T16:44:32.024Z,3.33
2018-09-11T16:47:00.444Z,2.33
2018-09-11T16:49:28.859Z,4.10
2018-09-11T16:51:57.806Z,2.37
2018-09-11T16:54:26.392Z,4.85
2018-09-11T16:56:54.773Z,2.83
2018-09-11T16:59:23.942Z,3.47
2018-09-11T17:01:53.009Z,2.20
2018-09-11T17:04:21.374Z,3.08
2018-09-11T17:06:49.750Z,2.45
2018-09-11T17:09:18.222Z,5.00
2018-09-11T17:11:46.594Z,2.20
2018-09-11T17:14:14.950Z,2.85
2018-09-11T17:16:43.435Z,2.60
2018-09-11T17:19:11.859Z,3.30
2018-09-11T17:21:40.631Z,3.30
2018-09-11T17:24:09.385Z,3.50
2018-09-11T17:26:38.048Z,2.98
2018-09-11T17:29:06.773Z,3.02
2018-09-11T17:31:35.715Z,5.35
2018-09-11T17:34:04.126Z,4.00
2018-09-11T17:36:32.972Z,4.42
2018-09-11T17:39:01.359Z,6.20
2018-09-11T17:41:29.714Z,6.00
2018-09-11T17:43:58.072Z,3.52
2018-09-11T17:46:26.411Z,6.10
2018-09-11T17:48:54.833Z,5.10
2018-09-11T17:51:23.166Z,5.05
2018-09-11T17:53:51.636Z,2.67
2018-09-11T17:56:20.953Z,2.40
2018-09-11T17:58:50.081Z,3.80
2018-09-11T18:01:18.418Z,3.90
2018-09-11T18:03:47.481Z,4.90
2018-09-11T18:06:16.257Z,3.40
2018-09-11T18:08:44.839Z,3.10
2018-09-11T18:11:13.279Z,4.25
2018-09-11T18:13:41.627Z,5.22
2018-09-11T18:16:10.004Z,3.98
2018-09-11T18:18:38.400Z,4.22
2018-09-11T18:21:08.793Z,4.33
2018-09-11T18:23:37.206Z,3.50
2018-09-11T18:26:05.845Z,4.42
2018-09-11T18:28:34.372Z,4.95
2018-09-11T18:31:03.233Z,4.15
2018-09-11T18:33:31.643Z,3.35
2018-09-11T18:35:59.965Z,3.45
2018-09-11T18:38:28.435Z,4.33
2018-09-11T18:40:56.779Z,4.05
2018-09-11T18:43:25.163Z,4.53
2018-09-11T18:45:53.595Z,2.80
2018-09-11T18:48:22.050Z,4.08
2018-09-11T18:50:50.752Z,2.92
2018-09-11T18:53:19.199Z,3.67
2018-09-11T18:55:47.521Z,5.08
2018-09-11T18:58:15.848Z,5.45
2018-09-11T19:00:44.244Z,3.25
2018-09-11T19:03:12.846Z,3.05
2018-09-11T19:05:41.186Z,5.05
2018-09-11T19:08:09.584Z,4.05
2018-09-11T19:10:37.983Z,2.85
2018-09-11T19:13:07.832Z,5.45
2018-09-11T19:15:36.787Z,5.22
2018-09-11T19:18:06.237Z,5.30
2018-09-11T19:20:36.384Z,3.30
2018-09-11T19:23:04.815Z,5.15
2018-09-11T19:25:33.298Z,4.50
2018-09-11T19:28:01.883Z,3.10
2018-09-11T19:30:30.714Z,3.72
2018-09-11T19:32:59.085Z,3.27
2018-09-11T19:35:27.829Z,4.05
2018-09-11T19:37:56.427Z,3.50
2018-09-11T19:40:24.973Z,2.67
2018-09-11T19:42:53.850Z,4.20
2018-09-11T19:45:22.363Z,5.80
2018-09-11T19:47:50.820Z,3.75
2018-09-11T19:50:19.480Z,5.40
2018-09-11T19:52:48.078Z,5.72
2018-09-11T19:55:16.646Z,4.50
2018-09-11T19:57:45.213Z,3.22
2018-09-11T20:00:13.701Z,5.33
2018-09-11T20:02:42.386Z,3.67
2018-09-11T20:05:10.844Z,4.05
2018-09-11T20:07:39.201Z,3.27
2018-09-11T20:10:07.790Z,4.78
2018-09-11T20:12:36.212Z,4.08
2018-09-11T20:15:04.749Z,4.85
2018-09-11T20:17:33.170Z,4.45
2018-09-11T20:20:01.486Z,5.20
2018-09-11T20:22:29.985Z,5.60
2018-09-11T20:24:58.527Z,3.35
2018-09-11T20:27:26.941Z,2.95
2018-09-11T20:29:55.492Z,3.77
2018-09-11T20:32:23.888Z,4.47
2018-09-11T20:34:52.248Z,4.28
2018-09-11T20:37:20.702Z,4.55
2018-09-11T20:39:49.081Z,4.10
2018-09-11T20:42:17.430Z,6.50
2018-09-11T20:44:45.776Z,4.90
2018-09-11T20:47:14.083Z,5.92
2018-09-11T20:49:42.415Z,3.52
2018-09-11T20:52:10.698Z,3.95
2018-09-11T20:54:39.046Z,6.20
2018-09-11T20:57:07.388Z,4.42
2018-09-11T20:59:35.777Z,5.70
2018-09-11T21:02:04.168Z,3.22
2018-09-11T21:04:32.507Z,4.10
2018-09-11T21:07:00.885Z,4.72
2018-09-11T21:09:29.247Z,6.30
2018-09-11T21:11:57.590Z,4.62
2018-09-11T21:14:25.957Z,5.03
2018-09-11T21:16:54.283Z,5.05
2018-09-11T21:19:22.623Z,4.87
2018-09-11T21:21:51.004Z,4.80
2018-09-11T21:24:19.343Z,4.28
2018-09-11T21:26:47.937Z,3.65
2018-09-11T21:29:16.315Z,4.60
2018-09-11T21:31:44.645Z,4.97
2018-09-11T21:34:13.068Z,4.12
2018-09-11T21:36:41.349Z,4.03
2018-09-11T21:39:11.239Z,5.05
2018-09-11T21:41:39.599Z,6.67
2018-09-11T21:44:07.928Z,5.22
2018-09-11T21:46:36.262Z,6.30
2018-09-11T21:49:04.552Z,4.80
2018-09-11T21:51:32.866Z,5.30
2018-09-11T21:54:01.181Z,4.72
2018-09-11T21:56:29.515Z,4.67
2018-09-11T21:58:58.054Z,5.43
2018-09-11T22:01:31.650Z,4.07
2018-09-11T22:03:59.970Z,5.83
2018-09-11T22:06:28.278Z,3.90
2018-09-11T22:08:56.606Z,3.80
2018-09-11T22:11:24.885Z,5.30
2018-09-11T22:13:53.315Z,4.00
2018-09-11T22:16:21.678Z,4.47
2018-09-11T22:18:50.018Z,5.37
2018-09-11T22:21:18.370Z,4.80
2018-09-11T22:23:46.815Z,4.62
2018-09-11T22:26:15.137Z,4.17
2018-09-11T22:28:43.483Z,4.75
2018-09-11T22:31:11.823Z,4.00
2018-09-11T22:33:40.122Z,4.05
2018-09-11T22:36:08.515Z,4.37
2018-09-11T22:38:36.954Z,6.40
2018-09-11T22:41:05.531Z,4.07
2018-09-11T22:43:33.877Z,4.10
2018-09-11T22:46:02.214Z,4.10
2018-09-11T22:48:30.581Z,5.33
2018-09-11T22:50:58.918Z,6.45
2018-09-11T22:53:27.249Z,5.63
2018-09-11T22:55:55.582Z,6.03
2018-09-11T22:58:23.936Z,6.00
2018-09-11T23:00:52.317Z,3.80
2018-09-11T23:03:20.661Z,4.77
2018-09-11T23:05:48.959Z,5.40
2018-09-11T23:08:17.350Z,4.60
2018-09-11T23:10:45.650Z,5.53
2018-09-11T23:13:13.935Z,3.95
2018-09-11T23:15:42.254Z,5.03
2018-09-11T23:18:10.577Z,3.77
2018-09-11T23:20:38.947Z,5.45
2018-09-11T23:23:07.353Z,3.85
2018-09-11T23:25:35.761Z,4.30
2018-09-11T23:28:04.121Z,4.45
2018-09-11T23:30:32.535Z,4.23
2018-09-11T23:33:00.887Z,3.80
2018-09-11T23:35:29.223Z,4.75
2018-09-11T23:37:57.544Z,3.58
2018-09-11T23:40:25.969Z,6.15
2018-09-11T23:42:54.292Z,7.03
2018-09-11T23:45:22.593Z,4.65
2018-09-11T23:47:50.943Z,5.12
2018-09-11T23:50:19.242Z,4.05
2018-09-11T23:52:47.617Z,4.90
2018-09-11T23:55:15.943Z,4.42
2018-09-11T23:57:44.283Z,4.43
